createdAt,value
2022-10-23T00:01:54.119Z,13.37
2022-10-23T00:04:22.925Z,13.35
2022-10-23T00:06:50.914Z,13.30
2022-10-23T00:09:20.293Z,13.29
2022-10-23T00:11:48.659Z,13.34
2022-10-23T00:14:16.969Z,13.36
2022-10-23T00:16:44.925Z,13.34
2022-10-23T00:19:14.268Z,13.34
2022-10-23T00:21:42.219Z,13.31
2022-10-23T00:26:43.123Z,13.20
2022-10-23T00:29:11.576Z,13.13
2022-10-23T00:31:39.730Z,12.85
2022-10-23T00:34:08.663Z,12.95
2022-10-23T00:36:38.670Z,12.88
2022-10-23T00:39:06.856Z,12.81
2022-10-23T00:41:34.853Z,12.76
2022-10-23T00:44:08.701Z,12.70
2022-10-23T00:46:36.858Z,12.63
2022-10-23T00:49:05.383Z,12.48
2022-10-23T00:51:36.768Z,12.53
2022-10-23T00:54:23.455Z,12.55
2022-10-23T00:56:52.225Z,12.62
2022-10-23T00:59:20.160Z,12.64
2022-10-23T01:01:48.523Z,12.66
2022-10-23T01:04:16.615Z,12.69
2022-10-23T01:06:48.037Z,12.76
2022-10-23T01:09:20.209Z,12.78
2022-10-23T01:11:49.818Z,12.77
2022-10-23T01:14:22.399Z,12.75
2022-10-23T01:16:54.515Z,12.81
2022-10-23T01:19:24.051Z,12.82
2022-10-23T01:21:56.392Z,12.74
2022-10-23T01:24:32.558Z,12.87
2022-10-23T01:27:14.226Z,12.85
2022-10-23T01:29:43.290Z,12.84
2022-10-23T01:32:12.610Z,12.85
2022-10-23T01:34:44.082Z,12.82
2022-10-23T01:37:13.289Z,12.82
2022-10-23T01:39:42.475Z,12.81
2022-10-23T01:42:12.020Z,12.77
2022-10-23T01:44:42.901Z,12.85
2022-10-23T01:47:11.655Z,12.81
2022-10-23T01:49:40.366Z,12.80
2022-10-23T01:52:09.581Z,12.80
2022-10-23T01:54:38.537Z,12.81
2022-10-23T01:57:06.792Z,12.84
2022-10-23T01:59:36.879Z,12.71
2022-10-23T02:02:06.377Z,12.85
2022-10-23T02:04:35.817Z,12.88
2022-10-23T02:07:03.761Z,12.91
2022-10-23T02:09:31.761Z,12.89
2022-10-23T02:12:00.881Z,12.78
2022-10-23T02:14:35.266Z,12.83
2022-10-23T02:17:08.620Z,12.70
2022-10-23T02:19:41.710Z,12.77
2022-10-23T02:22:11.884Z,12.80
2022-10-23T02:24:40.994Z,12.79
2022-10-23T02:27:11.266Z,12.82
2022-10-23T02:29:41.251Z,12.83
2022-10-23T02:32:10.619Z,12.71
2022-10-23T02:34:38.580Z,12.80
2022-10-23T02:37:06.589Z,12.82
2022-10-23T02:39:34.609Z,12.93
2022-10-23T02:42:06.360Z,13.02
2022-10-23T02:44:40.253Z,13.04
2022-10-23T02:47:18.716Z,13.11
2022-10-23T02:49:50.647Z,13.14
2022-10-23T02:52:21.846Z,13.18
2022-10-23T02:55:05.427Z,13.22
2022-10-23T02:57:34.268Z,13.24
2022-10-23T03:00:05.427Z,13.30
2022-10-23T03:02:37.997Z,13.40
2022-10-23T03:05:07.424Z,13.47
2022-10-23T03:07:35.381Z,13.46
2022-10-23T03:10:03.437Z,13.46
2022-10-23T03:12:31.426Z,13.40
2022-10-23T03:14:59.466Z,13.45
2022-10-23T03:17:27.416Z,13.45
2022-10-23T03:19:56.731Z,13.38
2022-10-23T03:22:24.709Z,13.53
2022-10-23T03:24:52.653Z,13.69
2022-10-23T03:27:20.746Z,13.86
2022-10-23T03:29:48.758Z,14.04
2022-10-23T03:32:16.814Z,14.16
2022-10-23T03:34:44.792Z,14.33
2022-10-23T03:37:14.102Z,14.48
2022-10-23T03:39:42.116Z,14.71
2022-10-23T03:42:10.117Z,14.80
2022-10-23T03:44:38.075Z,15.02
2022-10-23T03:47:06.239Z,15.21
2022-10-23T03:49:34.237Z,15.49
2022-10-23T03:52:02.195Z,15.69
2022-10-23T03:54:31.861Z,15.83
2022-10-23T03:56:59.798Z,15.97
2022-10-23T03:59:27.731Z,16.20
2022-10-23T04:01:55.843Z,16.50
2022-10-23T04:04:24.091Z,16.58
2022-10-23T04:06:52.064Z,16.70
2022-10-23T04:09:20.346Z,16.78
2022-10-23T04:11:49.681Z,16.86
2022-10-23T04:14:17.631Z,17.00
2022-10-23T04:16:45.598Z,17.09
2022-10-23T04:19:13.651Z,17.18
2022-10-23T04:21:41.640Z,17.23
2022-10-23T04:24:09.681Z,17.26
2022-10-23T04:26:37.979Z,17.25
2022-10-23T04:29:07.307Z,17.33
2022-10-23T04:31:35.315Z,17.25
2022-10-23T04:34:03.262Z,17.17
2022-10-23T04:36:31.332Z,17.17
2022-10-23T04:38:59.277Z,17.18
2022-10-23T04:41:27.300Z,17.39
2022-10-23T04:43:55.326Z,17.49
2022-10-23T04:46:24.661Z,17.59
2022-10-23T04:48:52.617Z,17.69
2022-10-23T04:51:20.558Z,17.77
2022-10-23T04:53:48.529Z,17.80
2022-10-23T04:56:16.506Z,17.88
2022-10-23T04:58:44.467Z,17.94
2022-10-23T05:01:12.513Z,18.00
2022-10-23T05:03:41.999Z,18.02
2022-10-23T05:06:10.121Z,18.05
2022-10-23T05:08:38.205Z,17.93
2022-10-23T05:11:06.629Z,18.09
2022-10-23T05:13:34.611Z,18.11
2022-10-23T05:16:02.538Z,18.14
2022-10-23T05:18:31.914Z,18.10
2022-10-23T05:21:03.071Z,18.12
2022-10-23T05:23:31.191Z,18.09
2022-10-23T05:25:59.170Z,18.10
2022-10-23T05:28:27.120Z,18.06
2022-10-23T05:30:55.082Z,18.11
2022-10-23T05:33:23.557Z,18.29
2022-10-23T05:35:51.513Z,18.56
2022-10-23T05:38:20.893Z,18.72
2022-10-23T05:40:48.816Z,18.95
2022-10-23T05:43:16.802Z,19.06
2022-10-23T05:45:44.792Z,19.07
2022-10-23T05:48:29.791Z,19.20
2022-10-23T05:51:04.995Z,19.27
2022-10-23T05:53:36.157Z,19.39
2022-10-23T05:56:07.405Z,19.39
2022-10-23T05:58:35.565Z,19.46
2022-10-23T06:01:09.523Z,19.54
2022-10-23T06:03:37.656Z,19.57
2022-10-23T06:06:06.424Z,19.77
2022-10-23T06:08:35.801Z,19.75
2022-10-23T06:11:08.037Z,19.71
2022-10-23T06:13:36.060Z,19.73
2022-10-23T06:16:10.199Z,19.85
2022-10-23T06:18:38.161Z,19.61
2022-10-23T06:21:06.352Z,19.79
2022-10-23T06:23:36.144Z,19.69
2022-10-23T06:26:04.283Z,19.64
2022-10-23T06:28:32.308Z,19.67
2022-10-23T06:31:00.272Z,19.77
2022-10-23T06:33:28.416Z,19.74
2022-10-23T06:35:57.251Z,19.59
2022-10-23T06:38:25.281Z,19.62
2022-10-23T06:40:55.228Z,19.69
2022-10-23T06:43:23.157Z,19.75
2022-10-23T06:45:51.118Z,19.75
2022-10-23T06:48:19.064Z,19.77
2022-10-23T06:50:47.002Z,19.88
2022-10-23T06:53:14.963Z,19.97
2022-10-23T06:55:42.895Z,19.99
2022-10-23T06:58:12.254Z,19.93
2022-10-23T07:00:40.248Z,19.96
2022-10-23T07:03:09.142Z,19.85
2022-10-23T07:05:37.190Z,19.97
2022-10-23T07:08:06.023Z,20.02
2022-10-23T07:10:33.965Z,19.97
2022-10-23T07:13:03.270Z,20.04
2022-10-23T07:15:32.907Z,20.16
2022-10-23T07:18:00.878Z,20.20
2022-10-23T07:20:28.883Z,20.35
2022-10-23T07:22:57.265Z,20.30
2022-10-23T07:25:25.626Z,20.20
2022-10-23T07:27:55.424Z,20.24
2022-10-23T07:30:24.318Z,20.27
2022-10-23T07:32:53.702Z,20.29
2022-10-23T07:35:21.711Z,20.36
2022-10-23T07:37:49.750Z,20.39
2022-10-23T07:40:18.849Z,20.48
2022-10-23T07:42:46.819Z,20.52
2022-10-23T07:45:14.833Z,20.41
2022-10-23T07:47:42.938Z,20.52
2022-10-23T07:50:12.648Z,20.56
2022-10-23T07:52:40.681Z,20.54
2022-10-23T07:55:09.377Z,20.53
2022-10-23T07:57:39.081Z,20.53
2022-10-23T08:00:08.862Z,20.67
2022-10-23T08:02:36.901Z,20.69
2022-10-23T08:05:05.244Z,20.68
2022-10-23T08:07:34.653Z,20.74
2022-10-23T08:10:02.688Z,20.76
2022-10-23T08:12:30.669Z,20.84
2022-10-23T08:14:58.664Z,20.98
2022-10-23T08:17:28.364Z,20.99
2022-10-23T08:19:56.418Z,21.16
2022-10-23T08:22:24.436Z,21.19
2022-10-23T08:24:53.804Z,21.27
2022-10-23T08:27:21.772Z,21.30
2022-10-23T08:29:49.756Z,21.36
2022-10-23T08:32:17.731Z,21.41
2022-10-23T08:34:45.877Z,21.25
2022-10-23T08:37:13.839Z,21.37
2022-10-23T08:39:41.887Z,21.48
2022-10-23T08:42:22.025Z,21.61
2022-10-23T08:44:54.147Z,21.60
2022-10-23T08:47:25.848Z,21.69
2022-10-23T08:49:56.624Z,21.70
2022-10-23T08:52:27.361Z,21.76
2022-10-23T08:55:01.255Z,21.74
2022-10-23T08:57:37.754Z,21.84
2022-10-23T09:00:12.434Z,22.06
2022-10-23T09:02:43.595Z,22.06
2022-10-23T09:05:15.752Z,22.06
2022-10-23T09:07:48.971Z,22.11
2022-10-23T09:10:40.381Z,22.24
2022-10-23T09:13:22.604Z,22.32
2022-10-23T09:15:51.398Z,22.36
2022-10-23T09:18:19.347Z,22.62
2022-10-23T09:20:47.381Z,22.95
2022-10-23T09:23:16.761Z,23.04
2022-10-23T09:25:45.121Z,23.20
2022-10-23T09:28:18.736Z,23.25
2022-10-23T09:30:46.703Z,23.13
2022-10-23T09:33:15.532Z,22.94
2022-10-23T09:35:53.532Z,23.08
2022-10-23T09:38:30.627Z,23.15
2022-10-23T09:40:59.823Z,23.29
2022-10-23T09:43:29.468Z,23.31
2022-10-23T09:45:58.505Z,23.27
2022-10-23T09:48:26.496Z,23.38
2022-10-23T09:50:55.201Z,23.53
2022-10-23T09:53:34.443Z,23.77
2022-10-23T09:56:03.690Z,23.66
2022-10-23T09:58:35.606Z,23.67
2022-10-23T10:01:03.852Z,23.72
2022-10-23T10:03:31.889Z,23.58
2022-10-23T10:06:01.089Z,23.66
2022-10-23T10:08:36.957Z,23.70
2022-10-23T10:11:08.683Z,23.68
2022-10-23T10:14:00.777Z,23.82
2022-10-23T10:16:34.096Z,23.77
2022-10-23T10:19:04.893Z,24.04
2022-10-23T10:21:35.643Z,24.24
2022-10-23T10:24:06.546Z,24.81
2022-10-23T10:26:37.681Z,25.49
2022-10-23T10:29:13.390Z,25.14
2022-10-23T10:31:50.677Z,25.07
2022-10-23T10:34:23.640Z,24.43
2022-10-23T10:36:52.706Z,24.30
2022-10-23T10:39:29.670Z,24.13
2022-10-23T10:42:07.361Z,24.26
2022-10-23T10:44:48.221Z,24.23
2022-10-23T10:47:21.047Z,24.35
2022-10-23T10:49:54.906Z,24.41
2022-10-23T10:52:25.893Z,24.79
2022-10-23T10:54:58.063Z,25.09
2022-10-23T10:57:30.697Z,25.39
2022-10-23T11:00:02.104Z,25.47
2022-10-23T11:02:30.554Z,25.99
2022-10-23T11:05:01.919Z,26.98
2022-10-23T11:07:33.737Z,27.85
2022-10-23T11:10:01.649Z,28.19
2022-10-23T11:12:29.643Z,28.08
2022-10-23T11:14:57.710Z,28.35
2022-10-23T11:17:27.883Z,27.78
2022-10-23T11:19:59.058Z,27.10
2022-10-23T11:22:29.177Z,27.09
2022-10-23T11:25:14.290Z,26.86
2022-10-23T11:28:03.398Z,27.11
2022-10-23T11:30:34.733Z,27.24
2022-10-23T11:33:43.916Z,27.18
2022-10-23T11:36:16.468Z,27.77
2022-10-23T11:38:45.397Z,28.21
2022-10-23T11:41:23.819Z,28.91
2022-10-23T11:43:55.445Z,27.96
2022-10-23T11:46:33.719Z,27.66
2022-10-23T11:49:03.232Z,27.33
2022-10-23T11:51:33.585Z,26.28
2022-10-23T11:54:09.126Z,25.77
2022-10-23T11:56:37.165Z,25.09
2022-10-23T11:59:21.310Z,24.59
2022-10-23T12:01:49.360Z,24.31
2022-10-23T12:04:21.595Z,24.15
2022-10-23T12:06:51.511Z,23.95
2022-10-23T12:09:25.219Z,23.44
2022-10-23T12:12:04.359Z,23.46
2022-10-23T12:14:33.830Z,23.32
2022-10-23T12:17:01.792Z,23.02
2022-10-23T12:19:31.222Z,22.98
2022-10-23T12:22:01.882Z,23.04
2022-10-23T12:24:54.108Z,22.95
2022-10-23T12:27:26.509Z,22.91
2022-10-23T12:30:01.468Z,22.84
2022-10-23T12:32:37.356Z,22.98
2022-10-23T12:35:16.643Z,22.96
2022-10-23T12:38:07.430Z,22.84
2022-10-23T12:40:35.367Z,22.91
2022-10-23T12:43:03.462Z,22.92
2022-10-23T12:45:32.432Z,22.81
2022-10-23T12:48:00.403Z,22.88
2022-10-23T12:50:29.252Z,22.81
2022-10-23T12:52:58.190Z,22.76
2022-10-23T12:55:29.802Z,22.82
2022-10-23T12:58:00.132Z,22.86
2022-10-23T13:00:28.107Z,22.90
2022-10-23T13:02:59.682Z,23.00
2022-10-23T13:05:27.623Z,22.92
2022-10-23T13:07:55.607Z,22.90
2022-10-23T13:10:23.661Z,22.79
2022-10-23T13:12:54.815Z,22.74
2022-10-23T13:15:23.841Z,22.79
2022-10-23T13:18:02.206Z,22.70
2022-10-23T13:20:30.823Z,22.60
2022-10-23T13:23:01.326Z,22.47
2022-10-23T13:25:30.826Z,22.50
2022-10-23T13:28:15.245Z,22.43
2022-10-23T13:30:45.308Z,22.31
2022-10-23T13:33:23.411Z,22.28
2022-10-23T13:35:58.500Z,22.26
2022-10-23T13:38:30.775Z,22.24
2022-10-23T13:40:59.453Z,22.16
2022-10-23T13:43:30.679Z,22.14
2022-10-23T13:45:58.945Z,22.10
2022-10-23T13:48:27.099Z,21.90
2022-10-23T13:50:55.100Z,21.97
2022-10-23T13:53:23.220Z,21.86
2022-10-23T13:55:54.939Z,21.86
2022-10-23T13:58:25.964Z,21.76
2022-10-23T14:00:55.345Z,21.75
2022-10-23T14:03:24.438Z,21.73
2022-10-23T14:05:52.422Z,21.70
2022-10-23T14:08:20.569Z,21.71
2022-10-23T14:10:48.546Z,21.68
2022-10-23T14:13:17.002Z,21.52
2022-10-23T14:15:44.959Z,21.51
2022-10-23T14:18:14.279Z,21.52
2022-10-23T14:20:42.207Z,21.47
2022-10-23T14:23:10.168Z,21.36
2022-10-23T14:25:38.163Z,21.32
2022-10-23T14:28:06.448Z,21.28
2022-10-23T14:30:34.415Z,21.16
2022-10-23T14:33:02.363Z,21.08
2022-10-23T14:35:31.790Z,20.98
2022-10-23T14:37:59.832Z,20.84
2022-10-23T14:40:27.789Z,20.79
2022-10-23T14:42:55.791Z,20.68
2022-10-23T14:45:23.747Z,20.62
2022-10-23T14:47:51.691Z,20.56
2022-10-23T14:50:19.722Z,20.52
2022-10-23T14:52:49.071Z,20.42
2022-10-23T14:55:17.074Z,20.29
2022-10-23T14:57:45.369Z,20.21
2022-10-23T15:00:14.738Z,20.16
2022-10-23T15:02:43.134Z,19.98
2022-10-23T15:05:11.234Z,19.82
2022-10-23T15:07:40.499Z,19.85
2022-10-23T15:10:10.868Z,19.75
2022-10-23T15:12:38.927Z,19.65
2022-10-23T15:15:07.879Z,19.54
2022-10-23T15:17:37.730Z,19.41
2022-10-23T15:20:06.710Z,19.33
2022-10-23T15:22:34.739Z,19.26
2022-10-23T15:25:02.684Z,19.13
2022-10-23T15:27:32.008Z,19.04
2022-10-23T15:29:59.950Z,18.99
2022-10-23T15:32:27.948Z,18.90
2022-10-23T15:34:58.239Z,18.81
2022-10-23T15:37:26.216Z,18.70
2022-10-23T15:39:57.168Z,18.62
2022-10-23T15:42:27.757Z,18.51
2022-10-23T15:44:57.085Z,18.41
2022-10-23T15:47:25.019Z,18.38
2022-10-23T15:49:52.990Z,18.32
2022-10-23T15:52:21.023Z,18.17
2022-10-23T15:54:49.045Z,18.15
2022-10-23T15:57:17.014Z,18.08
2022-10-23T15:59:45.013Z,17.94
2022-10-23T16:02:15.636Z,17.90
2022-10-23T16:04:43.709Z,17.81
2022-10-23T16:07:11.657Z,17.75
2022-10-23T16:09:39.625Z,17.71
2022-10-23T16:12:08.188Z,17.63
2022-10-23T16:14:36.181Z,17.58
2022-10-23T16:17:04.264Z,17.50
2022-10-23T16:19:33.668Z,17.42
2022-10-23T16:22:02.983Z,17.34
2022-10-23T16:24:31.189Z,17.23
2022-10-23T16:26:59.283Z,17.11
2022-10-23T16:29:27.586Z,17.00
2022-10-23T16:31:55.647Z,16.88
2022-10-23T16:34:23.601Z,16.80
2022-10-23T16:36:53.030Z,16.68
2022-10-23T16:39:21.058Z,16.58
2022-10-23T16:41:49.031Z,16.48
2022-10-23T16:44:16.994Z,16.38
2022-10-23T16:46:45.014Z,16.32
2022-10-23T16:49:14.008Z,16.17
2022-10-23T16:51:41.954Z,16.15
2022-10-23T16:54:11.672Z,16.13
2022-10-23T16:56:39.625Z,16.05
2022-10-23T16:59:07.668Z,16.03
2022-10-23T17:01:35.777Z,15.97
2022-10-23T17:04:03.881Z,15.91
2022-10-23T17:06:32.471Z,15.87
2022-10-23T17:09:00.742Z,15.79
2022-10-23T17:11:30.692Z,15.75
2022-10-23T17:13:59.877Z,15.70
2022-10-23T17:16:28.669Z,15.65
2022-10-23T17:18:56.655Z,15.61
2022-10-23T17:21:24.688Z,15.58
2022-10-23T17:23:52.751Z,15.53
2022-10-23T17:26:23.785Z,15.49
2022-10-23T17:28:53.131Z,15.45
2022-10-23T17:31:22.127Z,15.40
2022-10-23T17:33:51.475Z,15.40
2022-10-23T17:36:19.880Z,15.37
2022-10-23T17:38:47.856Z,15.33
2022-10-23T17:41:16.711Z,15.32
2022-10-23T17:43:44.725Z,15.33
2022-10-23T17:46:14.169Z,15.24
2022-10-23T17:48:43.510Z,15.22
2022-10-23T17:51:12.503Z,15.19
2022-10-23T17:53:41.355Z,15.16
2022-10-23T17:56:11.408Z,15.16
2022-10-23T17:58:39.371Z,15.15
2022-10-23T18:01:07.795Z,15.10
2022-10-23T18:03:37.297Z,15.01
2022-10-23T18:06:08.678Z,15.04
2022-10-23T18:08:36.845Z,14.99
2022-10-23T18:11:05.226Z,14.97
2022-10-23T18:13:33.451Z,14.90
2022-10-23T18:16:02.671Z,14.84
2022-10-23T18:18:30.692Z,14.82
2022-10-23T18:21:00.350Z,14.72
2022-10-23T18:23:28.360Z,14.74
2022-10-23T18:25:56.433Z,14.75
2022-10-23T18:28:24.410Z,14.74
2022-10-23T18:30:54.732Z,14.73
2022-10-23T18:33:24.881Z,14.72
2022-10-23T18:35:52.893Z,14.70
2022-10-23T18:38:22.248Z,14.65
2022-10-23T18:40:50.244Z,14.62
2022-10-23T18:43:31.354Z,14.57
2022-10-23T18:46:06.336Z,14.55
2022-10-23T18:48:34.576Z,14.56
2022-10-23T18:51:02.520Z,14.51
2022-10-23T18:53:31.830Z,14.49
2022-10-23T18:56:00.814Z,14.47
2022-10-23T18:58:28.800Z,14.48
2022-10-23T19:00:56.835Z,14.44
2022-10-23T19:03:24.796Z,14.46
2022-10-23T19:05:53.557Z,14.54
2022-10-23T19:08:21.879Z,14.69
2022-10-23T19:10:51.280Z,14.78
2022-10-23T19:13:19.288Z,14.93
2022-10-23T19:15:47.205Z,14.95
2022-10-23T19:18:15.221Z,15.04
2022-10-23T19:20:43.241Z,15.06
2022-10-23T19:23:12.858Z,15.11
2022-10-23T19:25:44.969Z,15.20
2022-10-23T19:28:14.297Z,15.21
2022-10-23T19:30:42.257Z,15.16
2022-10-23T19:33:10.246Z,15.23
2022-10-23T19:35:38.186Z,15.31
2022-10-23T19:38:06.178Z,15.33
2022-10-23T19:40:34.168Z,15.42
2022-10-23T19:43:02.113Z,15.35
2022-10-23T19:48:04.594Z,15.46
2022-10-23T19:50:32.566Z,15.42
2022-10-23T19:53:00.516Z,15.41
2022-10-23T19:55:28.468Z,15.28
2022-10-23T19:57:56.422Z,15.27
2022-10-23T20:00:24.422Z,15.20
2022-10-23T20:02:55.291Z,15.10
2022-10-23T20:05:23.486Z,15.00
2022-10-23T20:07:51.847Z,14.92
2022-10-23T20:10:19.989Z,14.80
2022-10-23T20:12:56.737Z,14.76
2022-10-23T20:15:30.433Z,14.71
2022-10-23T20:17:59.816Z,14.69
2022-10-23T20:20:27.798Z,14.74
2022-10-23T20:22:55.856Z,14.75
2022-10-23T20:25:24.040Z,14.75
2022-10-23T20:27:52.011Z,14.69
2022-10-23T20:30:20.179Z,14.68
2022-10-23T20:32:48.187Z,14.71
2022-10-23T20:35:17.578Z,14.65
2022-10-23T20:37:45.921Z,14.67
2022-10-23T20:40:14.363Z,14.66
2022-10-23T20:42:42.338Z,14.64
2022-10-23T20:45:11.576Z,14.63
2022-10-23T20:47:39.894Z,14.65
2022-10-23T20:50:09.284Z,14.68
2022-10-23T20:52:38.608Z,14.64
2022-10-23T20:55:07.086Z,14.58
2022-10-23T20:57:35.031Z,14.55
2022-10-23T21:00:05.123Z,14.57
2022-10-23T21:02:33.251Z,14.50
2022-10-23T21:05:01.280Z,14.55
2022-10-23T21:07:29.257Z,14.55
2022-10-23T21:09:58.579Z,14.50
2022-10-23T21:12:26.620Z,14.46
2022-10-23T21:14:54.662Z,14.38
2022-10-23T21:17:22.632Z,14.37
2022-10-23T21:19:50.633Z,14.33
2022-10-23T21:22:18.659Z,14.28
2022-10-23T21:24:46.816Z,14.28
2022-10-23T21:27:16.308Z,14.25
2022-10-23T21:29:44.474Z,14.25
2022-10-23T21:32:12.437Z,14.18
2022-10-23T21:34:40.375Z,14.12
2022-10-23T21:37:13.427Z,14.08
2022-10-23T21:39:42.183Z,14.08
2022-10-23T21:42:10.216Z,14.03
2022-10-23T21:44:39.566Z,13.97
2022-10-23T21:47:08.137Z,13.93
2022-10-23T21:49:36.084Z,13.84
2022-10-23T21:52:04.628Z,13.83
2022-10-23T21:54:32.600Z,13.77
2022-10-23T21:57:00.601Z,13.71
2022-10-23T21:59:31.628Z,13.65
2022-10-23T22:02:02.585Z,13.59
2022-10-23T22:04:30.640Z,13.49
2022-10-23T22:06:58.569Z,13.37
2022-10-23T22:09:26.531Z,13.29
2022-10-23T22:11:54.595Z,13.20
2022-10-23T22:14:22.545Z,13.11
2022-10-23T22:16:50.506Z,13.00
2022-10-23T22:19:20.349Z,12.90
2022-10-23T22:21:48.768Z,12.80
2022-10-23T22:24:17.519Z,12.73
2022-10-23T22:26:46.330Z,12.63
2022-10-23T22:29:15.638Z,12.58
2022-10-23T22:31:45.687Z,12.49
2022-10-23T22:34:27.259Z,12.43
2022-10-23T22:37:07.976Z,12.39
2022-10-23T22:39:35.934Z,12.35
2022-10-23T22:42:03.878Z,12.36
2022-10-23T22:44:31.877Z,12.34
2022-10-23T22:46:59.830Z,12.30
2022-10-23T22:49:29.309Z,12.27
2022-10-23T22:51:57.245Z,12.23
2022-10-23T22:54:25.194Z,12.22
2022-10-23T22:56:53.164Z,12.17
2022-10-23T22:59:21.116Z,12.14
2022-10-23T23:01:49.116Z,12.03
2022-10-23T23:07:07.956Z,12.04
2022-10-23T23:09:37.818Z,11.98
2022-10-23T23:12:05.986Z,11.96
2022-10-23T23:14:33.981Z,11.95
2022-10-23T23:17:01.955Z,11.93
2022-10-23T23:19:29.930Z,11.92
2022-10-23T23:21:57.982Z,11.95
2022-10-23T23:24:27.354Z,11.93
2022-10-23T23:26:55.285Z,11.95
2022-10-23T23:29:23.306Z,11.95
2022-10-23T23:31:51.229Z,11.96
2022-10-23T23:34:19.199Z,11.97
2022-10-23T23:36:47.192Z,12.00
2022-10-23T23:39:15.123Z,12.02
2022-10-23T23:41:44.480Z,12.01
2022-10-23T23:44:12.467Z,12.02
2022-10-23T23:46:40.377Z,12.01
2022-10-23T23:49:08.445Z,12.00
2022-10-23T23:51:37.277Z,11.98
2022-10-23T23:54:05.351Z,12.00
2022-10-23T23:56:33.305Z,11.97
2022-10-23T23:59:02.631Z,11.92
